Albany, New York
Traffic Map
Current Weather Conditions
Albany, New York
Broken Clouds
Broken Clouds
62°
Feels Like: 62°
Wind Chill: 62° Ceiling: 25000
Heat Index: 62° Visibility: 10mi
Dew Point: 45° Wind: 7mph
Humidity: 53% Direction: 150° (SSE)
Pressure: 29.62in Gusts: 0mph
Raw Report DataKALB 251951Z 15006KT 10SM FEW048 FEW060 BKN250 17/07 A2962 RMK AO2 SLP031 BKN V SCT T01670072 $
Traffic Incident Summary
Active as of:
Severity:
Category:
InformationThere was an issue retrieving the traffic information for this location. Please try a different location or try again shortly.
Advertisements
Track Severe Weather on mobile